createdAt,value
2023-01-01T00:01:48.540Z,14.57
2023-01-01T00:04:17.409Z,14.56
2023-01-01T00:06:46.752Z,14.57
2023-01-01T00:09:36.040Z,14.56
2023-01-01T00:12:05.586Z,14.55
2023-01-01T00:14:34.799Z,14.54
2023-01-01T00:17:04.012Z,14.55
2023-01-01T00:19:33.821Z,14.56
2023-01-01T00:22:27.984Z,14.54
2023-01-01T00:24:53.628Z,14.52
2023-01-01T00:27:26.609Z,14.52
2023-01-01T00:29:55.931Z,14.56
2023-01-01T00:32:25.482Z,14.55
2023-01-01T00:34:54.314Z,14.54
2023-01-01T00:37:23.422Z,14.53
2023-01-01T00:39:56.214Z,14.53
2023-01-01T00:42:27.287Z,14.52
2023-01-01T00:44:57.764Z,14.50
2023-01-01T00:47:32.348Z,14.49
2023-01-01T00:50:01.284Z,14.51
2023-01-01T00:52:32.032Z,14.54
2023-01-01T00:55:01.705Z,14.55
2023-01-01T00:57:33.010Z,14.52
2023-01-01T01:00:05.953Z,14.52
2023-01-01T01:02:36.192Z,14.50
2023-01-01T01:05:06.474Z,14.49
2023-01-01T01:07:45.016Z,14.53
2023-01-01T01:10:15.280Z,14.59
2023-01-01T01:12:46.922Z,14.62
2023-01-01T01:15:19.578Z,14.62
2023-01-01T01:17:48.732Z,14.63
2023-01-01T01:20:19.749Z,14.63
2023-01-01T01:22:48.787Z,14.63
2023-01-01T01:25:17.568Z,14.61
2023-01-01T01:27:51.946Z,14.61
2023-01-01T01:30:21.339Z,14.63
2023-01-01T01:32:50.067Z,14.64
2023-01-01T01:35:18.803Z,14.65
2023-01-01T01:37:48.835Z,14.66
2023-01-01T01:40:19.004Z,14.72
2023-01-01T01:42:49.206Z,14.74
2023-01-01T01:45:19.215Z,14.74
2023-01-01T01:47:48.079Z,14.75
2023-01-01T01:50:41.222Z,14.79
2023-01-01T01:53:27.906Z,14.80
2023-01-01T01:56:01.031Z,14.81
2023-01-01T01:58:32.377Z,14.83
2023-01-01T02:01:01.514Z,14.84
2023-01-01T02:03:43.795Z,14.86
2023-01-01T02:06:13.747Z,14.87
2023-01-01T02:08:42.827Z,14.84
2023-01-01T02:11:11.836Z,14.79
2023-01-01T02:13:40.734Z,14.72
2023-01-01T02:16:56.070Z,14.64
2023-01-01T02:19:46.266Z,14.54
2023-01-01T02:22:16.780Z,14.48
2023-01-01T02:24:54.987Z,14.45
2023-01-01T02:28:12.628Z,14.45
2023-01-01T02:30:46.122Z,14.47
2023-01-01T02:33:20.803Z,14.50
2023-01-01T02:35:56.468Z,14.53
2023-01-01T02:38:37.284Z,14.57
2023-01-01T02:41:11.347Z,14.59
2023-01-01T02:43:42.253Z,14.58
2023-01-01T02:48:45.117Z,14.53
2023-01-01T02:51:43.438Z,14.49
2023-01-01T02:54:51.009Z,14.43
2023-01-01T02:58:31.259Z,14.35
2023-01-01T03:01:10.794Z,14.30
2023-01-01T03:04:01.780Z,14.24
2023-01-01T03:06:43.482Z,14.20
2023-01-01T03:09:43.964Z,14.15
2023-01-01T03:12:40.026Z,14.09
2023-01-01T03:15:27.917Z,14.03
2023-01-01T03:18:09.254Z,13.98
2023-01-01T03:20:42.908Z,13.95
2023-01-01T03:23:18.143Z,13.90
2023-01-01T03:25:52.421Z,13.86
2023-01-01T03:28:34.310Z,13.83
2023-01-01T03:31:04.185Z,13.81
2023-01-01T03:33:39.361Z,13.82
2023-01-01T03:36:15.524Z,13.79
2023-01-01T03:38:48.129Z,13.77
2023-01-01T03:41:27.450Z,13.73
2023-01-01T03:44:09.136Z,13.69
2023-01-01T03:46:38.578Z,13.64
2023-01-01T03:49:10.739Z,13.59
2023-01-01T03:51:40.133Z,13.53
2023-01-01T03:54:24.873Z,13.47
2023-01-01T03:57:03.959Z,13.40
2023-01-01T03:59:44.481Z,13.32
2023-01-01T04:02:19.356Z,13.25
2023-01-01T04:04:49.843Z,13.19
2023-01-01T04:07:18.616Z,13.15
2023-01-01T04:09:52.443Z,13.14
2023-01-01T04:12:21.995Z,13.13
2023-01-01T04:14:50.674Z,13.15
2023-01-01T04:17:19.267Z,13.16
2023-01-01T04:19:54.699Z,13.16
2023-01-01T04:22:24.002Z,13.13
2023-01-01T04:24:54.041Z,13.08
2023-01-01T04:27:22.957Z,13.02
2023-01-01T04:29:51.622Z,12.97
2023-01-01T04:32:20.814Z,12.90
2023-01-01T04:34:49.513Z,12.83
2023-01-01T04:37:18.176Z,12.77
2023-01-01T04:39:47.042Z,12.71
2023-01-01T04:42:18.353Z,12.67
2023-01-01T04:44:48.581Z,12.67
2023-01-01T04:47:17.469Z,12.67
2023-01-01T04:49:46.226Z,12.68
2023-01-01T04:52:15.530Z,12.71
2023-01-01T04:54:44.510Z,12.73
2023-01-01T04:57:14.187Z,12.74
2023-01-01T04:59:43.255Z,12.79
2023-01-01T05:02:12.105Z,12.84
2023-01-01T05:04:41.984Z,12.87
2023-01-01T05:07:11.552Z,12.91
2023-01-01T05:09:43.428Z,12.93
2023-01-01T05:12:13.557Z,12.96
2023-01-01T05:14:44.664Z,12.99
2023-01-01T05:17:15.125Z,13.03
2023-01-01T05:19:44.467Z,13.05
2023-01-01T05:22:13.421Z,13.08
2023-01-01T05:24:45.421Z,13.12
2023-01-01T05:27:13.920Z,13.14
2023-01-01T05:29:43.773Z,13.14
2023-01-01T05:34:39.863Z,13.15
2023-01-01T05:37:08.663Z,13.14
2023-01-01T05:39:37.790Z,13.13
2023-01-01T05:42:06.390Z,13.11
2023-01-01T05:44:36.022Z,13.06
2023-01-01T05:47:04.718Z,13.01
2023-01-01T05:49:33.337Z,12.98
2023-01-01T05:52:02.402Z,12.98
2023-01-01T05:54:30.998Z,12.99
2023-01-01T05:56:59.546Z,12.98
2023-01-01T05:59:28.848Z,12.96
2023-01-01T06:01:57.769Z,12.93
2023-01-01T06:04:26.592Z,12.90
2023-01-01T06:06:55.738Z,12.88
2023-01-01T06:09:24.633Z,12.87
2023-01-01T06:11:53.231Z,12.87
2023-01-01T06:14:22.295Z,12.88
2023-01-01T06:16:51.773Z,12.91
2023-01-01T06:19:20.383Z,12.96
2023-01-01T06:21:49.274Z,13.00
2023-01-01T06:24:18.659Z,13.05
2023-01-01T06:26:47.307Z,13.09
2023-01-01T06:29:16.549Z,13.10
2023-01-01T06:31:45.591Z,13.10
2023-01-01T06:34:14.701Z,13.08
2023-01-01T06:36:43.664Z,13.04
2023-01-01T06:39:12.268Z,13.01
2023-01-01T06:41:41.251Z,12.97
2023-01-01T06:44:10.359Z,12.93
2023-01-01T06:46:39.280Z,12.86
2023-01-01T06:49:11.852Z,12.79
2023-01-01T06:51:42.950Z,12.73
2023-01-01T06:54:12.552Z,12.70
2023-01-01T06:56:41.245Z,12.68
2023-01-01T06:59:10.417Z,12.67
2023-01-01T07:01:44.659Z,12.66
2023-01-01T07:04:16.141Z,12.66
2023-01-01T07:06:45.935Z,12.65
2023-01-01T07:09:15.191Z,12.69
2023-01-01T07:11:43.834Z,12.72
2023-01-01T07:14:12.582Z,12.76
2023-01-01T07:16:41.360Z,12.80
2023-01-01T07:19:10.124Z,12.82
2023-01-01T07:21:45.049Z,12.87
2023-01-01T07:24:15.868Z,12.91
2023-01-01T07:26:45.263Z,12.94
2023-01-01T07:29:13.873Z,12.98
2023-01-01T07:31:45.175Z,13.02
2023-01-01T07:34:17.027Z,13.09
2023-01-01T07:36:47.475Z,13.14
2023-01-01T07:39:15.886Z,13.19
2023-01-01T07:41:45.576Z,13.22
2023-01-01T07:44:15.589Z,13.24
2023-01-01T07:46:45.397Z,13.27
2023-01-01T07:49:14.232Z,13.30
2023-01-01T07:51:43.540Z,13.33
2023-01-01T07:54:12.254Z,13.36
2023-01-01T07:56:44.643Z,13.39
2023-01-01T07:59:20.303Z,13.41
2023-01-01T08:01:54.206Z,13.45
2023-01-01T08:04:23.753Z,13.48
2023-01-01T08:06:53.004Z,13.50
2023-01-01T08:09:22.449Z,13.53
2023-01-01T08:11:53.707Z,13.57
2023-01-01T08:14:22.977Z,13.61
2023-01-01T08:16:51.860Z,13.67
2023-01-01T08:19:20.979Z,13.70
2023-01-01T08:21:50.386Z,13.74
2023-01-01T08:24:19.462Z,13.79
2023-01-01T08:26:51.468Z,13.86
2023-01-01T08:29:20.669Z,13.94
2023-01-01T08:31:52.232Z,14.01
2023-01-01T08:34:23.866Z,14.10
2023-01-01T08:36:52.647Z,14.18
2023-01-01T08:39:22.155Z,14.25
2023-01-01T08:41:50.751Z,14.30
2023-01-01T08:44:24.862Z,14.35
2023-01-01T08:46:55.569Z,14.39
2023-01-01T08:49:24.170Z,14.43
2023-01-01T08:51:54.269Z,14.47
2023-01-01T08:54:25.684Z,14.53
2023-01-01T08:56:54.816Z,14.63
2023-01-01T08:59:39.693Z,14.72
2023-01-01T09:02:08.666Z,14.80
2023-01-01T09:04:38.289Z,14.90
2023-01-01T09:07:07.102Z,15.03
2023-01-01T09:09:36.226Z,15.18
2023-01-01T09:12:06.939Z,15.34
2023-01-01T09:14:36.973Z,15.46
2023-01-01T09:17:08.579Z,15.53
2023-01-01T09:19:39.917Z,15.58
2023-01-01T09:22:15.527Z,15.60
2023-01-01T09:24:44.250Z,15.57
2023-01-01T09:27:13.269Z,15.54
2023-01-01T09:29:42.817Z,15.50
2023-01-01T09:32:11.405Z,15.45
2023-01-01T09:34:40.422Z,15.40
2023-01-01T09:37:08.971Z,15.33
2023-01-01T09:39:37.511Z,15.25
2023-01-01T09:42:15.766Z,15.17
2023-01-01T09:44:58.491Z,15.10
2023-01-01T09:47:41.611Z,15.01
2023-01-01T09:50:23.381Z,14.94
2023-01-01T09:52:59.858Z,14.91
2023-01-01T09:55:44.015Z,14.87
2023-01-01T09:58:13.638Z,14.83
2023-01-01T10:00:47.077Z,14.80
2023-01-01T10:03:37.643Z,14.78
2023-01-01T10:06:12.052Z,14.78
2023-01-01T10:09:10.322Z,14.78
2023-01-01T10:11:48.699Z,14.78
2023-01-01T10:14:31.390Z,14.77
2023-01-01T10:17:04.829Z,14.77
2023-01-01T10:19:45.957Z,14.75
2023-01-01T10:22:38.537Z,14.76
2023-01-01T10:25:19.892Z,14.80
2023-01-01T10:27:59.335Z,14.85
2023-01-01T10:30:29.487Z,14.92
2023-01-01T10:32:58.582Z,15.00
2023-01-01T10:35:40.171Z,15.08
2023-01-01T10:38:21.972Z,15.17
2023-01-01T10:40:53.403Z,15.25
2023-01-01T10:43:22.368Z,15.33
2023-01-01T10:45:53.890Z,15.39
2023-01-01T10:48:28.611Z,15.46
2023-01-01T10:51:02.315Z,15.51
2023-01-01T10:53:36.389Z,15.56
2023-01-01T10:56:07.154Z,15.59
2023-01-01T10:58:49.580Z,15.59
2023-01-01T11:01:18.747Z,15.64
2023-01-01T11:04:06.763Z,15.71
2023-01-01T11:06:37.770Z,15.79
2023-01-01T11:09:28.643Z,15.86
2023-01-01T11:12:08.074Z,15.94
2023-01-01T11:14:54.749Z,16.02
2023-01-01T11:17:33.090Z,16.10
2023-01-01T11:20:03.992Z,16.18
2023-01-01T11:22:40.600Z,16.25
2023-01-01T11:25:20.821Z,16.29
2023-01-01T11:27:51.018Z,16.36
2023-01-01T11:30:23.175Z,16.41
2023-01-01T11:32:56.148Z,16.46
2023-01-01T11:35:28.629Z,16.50
2023-01-01T11:37:58.751Z,16.54
2023-01-01T11:40:37.584Z,16.61
2023-01-01T11:43:07.648Z,16.67
2023-01-01T11:45:43.770Z,16.73
2023-01-01T11:48:21.567Z,16.78
2023-01-01T11:50:56.193Z,16.83
2023-01-01T11:53:25.396Z,16.86
2023-01-01T11:56:15.341Z,16.88
2023-01-01T11:59:22.625Z,16.88
2023-01-01T12:01:57.612Z,16.87
2023-01-01T12:04:38.479Z,16.87
2023-01-01T12:07:11.073Z,16.87
2023-01-01T12:10:01.809Z,16.85
2023-01-01T12:12:44.358Z,16.85
2023-01-01T12:15:41.683Z,16.85
2023-01-01T12:18:28.590Z,16.85
2023-01-01T12:21:12.406Z,16.83
2023-01-01T12:23:41.574Z,16.80
2023-01-01T12:26:16.026Z,16.78
2023-01-01T12:29:23.095Z,16.75
2023-01-01T12:32:02.443Z,16.70
2023-01-01T12:34:38.444Z,16.67
2023-01-01T12:37:16.409Z,16.64
2023-01-01T12:40:01.507Z,16.60
2023-01-01T12:42:46.627Z,16.57
2023-01-01T12:45:34.071Z,16.55
2023-01-01T12:48:31.123Z,16.50
2023-01-01T12:51:06.173Z,16.45
2023-01-01T12:53:41.037Z,16.42
2023-01-01T12:56:23.472Z,16.38
2023-01-01T12:59:05.058Z,16.37
2023-01-01T13:01:36.546Z,16.34
2023-01-01T13:04:14.754Z,16.31
2023-01-01T13:06:50.013Z,16.29
2023-01-01T13:09:22.710Z,16.28
2023-01-01T13:11:56.130Z,16.26
2023-01-01T13:14:25.969Z,16.25
2023-01-01T13:16:58.478Z,16.25
2023-01-01T13:19:34.604Z,16.23
2023-01-01T13:22:29.759Z,16.22
2023-01-01T13:25:11.797Z,16.20
2023-01-01T13:28:06.041Z,16.17
2023-01-01T13:30:44.470Z,16.12
2023-01-01T13:33:32.379Z,16.08
2023-01-01T13:36:22.649Z,16.03
2023-01-01T13:38:53.229Z,15.97
2023-01-01T13:41:30.183Z,15.91
2023-01-01T13:44:06.128Z,15.85
2023-01-01T13:46:45.239Z,15.79
2023-01-01T13:49:42.939Z,15.72
2023-01-01T13:52:47.157Z,15.63
2023-01-01T13:55:30.236Z,15.54
2023-01-01T13:58:17.308Z,15.45
2023-01-01T14:01:37.295Z,15.35
2023-01-01T14:04:33.922Z,15.25
2023-01-01T14:07:49.027Z,15.17
2023-01-01T14:10:31.765Z,15.10
2023-01-01T14:13:06.480Z,15.05
2023-01-01T14:15:47.012Z,15.00
2023-01-01T14:18:19.087Z,14.95
2023-01-01T14:20:54.936Z,14.91
2023-01-01T14:23:31.400Z,14.87
2023-01-01T14:26:08.477Z,14.83
2023-01-01T14:28:38.679Z,14.79
2023-01-01T14:31:19.667Z,14.75
2023-01-01T14:33:48.741Z,14.72
2023-01-01T14:36:27.285Z,14.68
2023-01-01T14:39:02.612Z,14.63
2023-01-01T14:41:46.566Z,14.58
2023-01-01T14:44:19.689Z,14.54
2023-01-01T14:46:51.859Z,14.50
2023-01-01T14:49:32.476Z,14.46
2023-01-01T14:52:23.049Z,14.41
2023-01-01T14:55:01.326Z,14.35
2023-01-01T14:57:33.630Z,14.31
2023-01-01T15:00:24.164Z,14.27
2023-01-01T15:02:53.934Z,14.22
2023-01-01T15:05:35.465Z,14.17
2023-01-01T15:08:10.997Z,14.15
2023-01-01T15:10:40.237Z,14.12
2023-01-01T15:13:17.295Z,14.08
2023-01-01T15:15:49.730Z,14.04
2023-01-01T15:18:39.922Z,14.00
2023-01-01T15:21:25.001Z,13.95
2023-01-01T15:24:01.704Z,13.91
2023-01-01T15:26:46.810Z,13.88
2023-01-01T15:29:42.025Z,13.86
2023-01-01T15:32:15.755Z,13.85
2023-01-01T15:34:50.341Z,13.83
2023-01-01T15:37:30.983Z,13.82
2023-01-01T15:40:23.199Z,13.79
2023-01-01T15:42:57.677Z,13.77
2023-01-01T15:45:36.891Z,13.75
2023-01-01T15:48:10.631Z,13.73
2023-01-01T15:50:49.421Z,13.72
2023-01-01T15:53:26.454Z,13.71
2023-01-01T15:56:07.494Z,13.70
2023-01-01T15:58:56.680Z,13.68
2023-01-01T16:01:31.650Z,13.64
2023-01-01T16:04:31.419Z,13.60
2023-01-01T16:07:05.327Z,13.56
2023-01-01T16:09:36.290Z,13.52
2023-01-01T16:12:05.301Z,13.47
2023-01-01T16:14:34.317Z,13.44
2023-01-01T16:17:03.204Z,13.40
2023-01-01T16:19:34.133Z,13.36
2023-01-01T16:22:02.950Z,13.32
2023-01-01T16:24:34.787Z,13.29
2023-01-01T16:27:04.239Z,13.26
2023-01-01T16:29:33.245Z,13.25
2023-01-01T16:32:01.852Z,13.24
2023-01-01T16:34:31.125Z,13.25
2023-01-01T16:36:59.969Z,13.25
2023-01-01T16:39:28.549Z,13.26
2023-01-01T16:41:58.488Z,13.26
2023-01-01T16:44:27.134Z,13.26
2023-01-01T16:46:55.749Z,13.26
2023-01-01T16:49:25.035Z,13.24
2023-01-01T16:51:53.691Z,13.23
2023-01-01T16:54:22.254Z,13.20
2023-01-01T16:56:51.698Z,13.18
2023-01-01T16:59:21.154Z,13.14
2023-01-01T17:01:49.822Z,13.08
2023-01-01T17:04:18.643Z,13.05
2023-01-01T17:06:47.428Z,13.02
2023-01-01T17:09:16.984Z,13.02
2023-01-01T17:11:46.436Z,13.04
2023-01-01T17:14:15.626Z,13.08
2023-01-01T17:16:44.398Z,13.13
2023-01-01T17:19:17.453Z,13.16
2023-01-01T17:21:48.522Z,13.17
2023-01-01T17:24:19.301Z,13.19
2023-01-01T17:26:53.044Z,13.20
2023-01-01T17:29:23.253Z,13.23
2023-01-01T17:31:52.106Z,13.24
2023-01-01T17:34:20.890Z,13.22
2023-01-01T17:36:49.974Z,13.19
2023-01-01T17:39:18.967Z,13.18
2023-01-01T17:41:47.759Z,13.15
2023-01-01T17:44:16.722Z,13.13
2023-01-01T17:46:46.690Z,13.13
2023-01-01T17:49:15.611Z,13.15
2023-01-01T17:51:45.122Z,13.17
2023-01-01T17:54:19.880Z,13.21
2023-01-01T17:56:50.706Z,13.23
2023-01-01T17:59:19.705Z,13.25
2023-01-01T18:01:48.723Z,13.25
2023-01-01T18:04:27.481Z,13.27
2023-01-01T18:07:23.771Z,13.28
2023-01-01T18:10:12.010Z,13.28
2023-01-01T18:13:06.697Z,13.27
2023-01-01T18:15:53.569Z,13.25
2023-01-01T18:18:45.264Z,13.24
2023-01-01T18:21:31.964Z,13.24
2023-01-01T18:24:25.540Z,13.25
2023-01-01T18:27:13.018Z,13.28
2023-01-01T18:29:57.801Z,13.31
2023-01-01T18:32:48.495Z,13.35
2023-01-01T18:35:33.117Z,13.41
2023-01-01T18:38:27.039Z,13.45
2023-01-01T18:41:08.400Z,13.46
2023-01-01T18:43:38.265Z,13.48
2023-01-01T18:46:10.924Z,13.48
2023-01-01T18:48:42.881Z,13.47
2023-01-01T18:51:20.082Z,13.46
2023-01-01T18:53:52.170Z,13.46
2023-01-01T18:56:21.776Z,13.44
2023-01-01T18:58:51.727Z,13.42
2023-01-01T19:01:23.899Z,13.40
2023-01-01T19:03:56.998Z,13.37
2023-01-01T19:06:31.248Z,13.35
2023-01-01T19:09:17.298Z,13.33
2023-01-01T19:11:47.301Z,13.30
2023-01-01T19:14:22.883Z,13.28
2023-01-01T19:16:58.078Z,13.28
2023-01-01T19:19:31.283Z,13.27
2023-01-01T19:22:17.595Z,13.25
2023-01-01T19:24:47.335Z,13.23
2023-01-01T19:27:18.009Z,13.20
2023-01-01T19:29:48.464Z,13.17
2023-01-01T19:32:18.009Z,13.12
2023-01-01T19:34:48.870Z,13.07
2023-01-01T19:37:18.088Z,13.04
2023-01-01T19:39:47.315Z,13.00
2023-01-01T19:42:16.306Z,12.96
2023-01-01T19:44:44.875Z,12.94
2023-01-01T19:47:13.581Z,12.93
2023-01-01T19:49:42.889Z,12.92
2023-01-01T19:52:11.908Z,12.92
2023-01-01T19:54:41.648Z,12.92
2023-01-01T19:57:14.479Z,12.93
2023-01-01T19:59:43.221Z,12.92
2023-01-01T20:02:44.748Z,12.90
2023-01-01T20:05:05.690Z,12.87
2023-01-01T20:07:34.949Z,12.85
2023-01-01T20:10:07.931Z,12.83
2023-01-01T20:12:37.230Z,12.80
2023-01-01T20:15:06.715Z,12.79
2023-01-01T20:17:35.864Z,12.77
2023-01-01T20:20:06.086Z,12.77
2023-01-01T20:22:35.799Z,12.78
2023-01-01T20:25:06.367Z,12.81
2023-01-01T20:27:59.450Z,12.84
2023-01-01T20:30:30.194Z,12.87
2023-01-01T20:32:59.847Z,12.89
2023-01-01T20:35:48.127Z,12.89
2023-01-01T20:38:17.448Z,12.86
2023-01-01T20:40:46.806Z,12.84
2023-01-01T20:43:21.304Z,12.82
2023-01-01T20:45:58.479Z,12.79
2023-01-01T20:48:28.584Z,12.77
2023-01-01T20:50:57.985Z,12.75
2023-01-01T20:53:32.063Z,12.73
2023-01-01T20:56:02.135Z,12.72
2023-01-01T20:58:31.909Z,12.71
2023-01-01T21:01:01.635Z,12.71
2023-01-01T21:03:31.321Z,12.72
2023-01-01T21:06:17.122Z,12.75
2023-01-01T21:08:49.678Z,12.79
2023-01-01T21:11:18.290Z,12.82
2023-01-01T21:13:51.123Z,12.84
2023-01-01T21:16:29.259Z,12.84
2023-01-01T21:18:59.944Z,12.80
2023-01-01T21:21:53.840Z,12.77
2023-01-01T21:24:37.852Z,12.78
2023-01-01T21:27:25.475Z,12.78
2023-01-01T21:29:58.311Z,12.77
2023-01-01T21:32:43.620Z,12.76
2023-01-01T21:35:33.247Z,12.75
2023-01-01T21:38:21.987Z,12.74
2023-01-01T21:41:01.346Z,12.73
2023-01-01T21:43:39.496Z,12.73
2023-01-01T21:46:09.013Z,12.73
2023-01-01T21:48:56.879Z,12.76
2023-01-01T21:51:40.664Z,12.78
2023-01-01T21:54:09.940Z,12.79
2023-01-01T21:56:47.606Z,12.79
2023-01-01T21:59:35.148Z,12.78
2023-01-01T22:02:07.447Z,12.74
2023-01-01T22:04:39.682Z,12.71
2023-01-01T22:10:35.094Z,12.65
2023-01-01T22:13:15.005Z,12.62
2023-01-01T22:15:44.594Z,12.60
2023-01-01T22:18:23.877Z,12.58
2023-01-01T22:20:55.075Z,12.58
2023-01-01T22:23:24.661Z,12.58
2023-01-01T22:25:54.148Z,12.56
2023-01-01T22:28:32.638Z,12.57
2023-01-01T22:31:02.453Z,12.57
2023-01-01T22:33:42.270Z,12.57
2023-01-01T22:36:26.650Z,12.52
2023-01-01T22:39:01.876Z,12.50
2023-01-01T22:41:31.277Z,12.51
2023-01-01T22:44:04.310Z,12.51
2023-01-01T22:46:39.770Z,12.51
2023-01-01T22:49:23.396Z,12.53
2023-01-01T22:51:55.292Z,12.57
2023-01-01T22:54:27.438Z,12.62
2023-01-01T22:56:57.381Z,12.66
2023-01-01T22:59:26.603Z,12.67
2023-01-01T23:01:56.041Z,12.68
2023-01-01T23:04:25.902Z,12.67
2023-01-01T23:06:55.811Z,12.65
2023-01-01T23:09:25.451Z,12.64
2023-01-01T23:11:55.568Z,12.62
2023-01-01T23:14:44.060Z,12.59
2023-01-01T23:17:13.766Z,12.58
2023-01-01T23:19:42.716Z,12.60
2023-01-01T23:22:11.423Z,12.62
2023-01-01T23:24:40.596Z,12.63
2023-01-01T23:27:11.384Z,12.63
2023-01-01T23:29:40.205Z,12.64
2023-01-01T23:32:08.767Z,12.63
2023-01-01T23:34:38.275Z,12.63
2023-01-01T23:37:07.364Z,12.61
2023-01-01T23:39:36.308Z,12.59
2023-01-01T23:42:06.054Z,12.61
2023-01-01T23:44:34.730Z,12.65
2023-01-01T23:47:04.148Z,12.70
2023-01-01T23:49:33.630Z,12.74
2023-01-01T23:52:04.308Z,12.75
2023-01-01T23:54:32.990Z,12.74
2023-01-01T23:57:02.144Z,12.71
2023-01-01T23:59:30.823Z,12.67
